Time;durP1;ratioP1;P1;durP2;ratioP2;P2;SDS_P1;SDS_P2;PMS_P1;PMS_P2;Temp;Humidity;BMP_temperature;BMP_pressure;BME280_temperature;BME280_humidity;BME280_pressure;Samples;Min_cycle;Max_cycle;Signal;HPM_P1;HPM_P2
2021/03/21 00:01:05;;;;;;;19.95;9.73;;;;;;;0.34;68.24;101404.20;1828292;78;22191;-54
2021/03/21 00:03:34;;;;;;;18.67;9.03;;;;;;;0.29;68.42;101397.51;1828091;78;21122;-54
2021/03/21 00:06:03;;;;;;;20.48;9.38;;;;;;;0.24;68.46;101392.14;1828155;78;21094;-54
2021/03/21 00:08:32;;;;;;;17.82;8.43;;;;;;;0.23;68.58;101398.28;1828100;78;21304;-55
2021/03/21 00:11:04;;;;;;;19.98;9.10;;;;;;;0.23;68.60;101399.59;1828227;78;21542;-56
2021/03/21 00:13:32;;;;;;;19.60;8.73;;;;;;;0.20;68.61;101395.59;1827939;77;21066;-56
2021/03/21 00:16:01;;;;;;;17.87;8.63;;;;;;;0.19;68.69;101396.45;1828145;78;21102;-56
2021/03/21 00:18:32;;;;;;;22.67;10.50;;;;;;;0.16;68.81;101393.77;1828097;78;21087;-56
2021/03/21 00:21:00;;;;;;;19.85;9.25;;;;;;;0.14;68.91;101391.08;1828147;78;21355;-56
2021/03/21 00:23:28;;;;;;;22.27;8.43;;;;;;;0.12;68.95;101384.02;1827973;78;21023;-56
2021/03/21 00:25:55;;;;;;;23.27;9.85;;;;;;;0.15;68.71;101385.39;1827665;77;21039;-56
2021/03/21 00:28:27;;;;;;;23.22;10.00;;;;;;;0.15;68.87;101372.20;1827550;78;21183;-56
2021/03/21 00:30:55;;;;;;;17.02;8.50;;;;;;;0.15;68.78;101368.25;1827532;78;20995;-55
2021/03/21 00:33:26;;;;;;;24.35;9.05;;;;;;;0.14;68.96;101374.39;1827533;78;21415;-55
2021/03/21 00:35:54;;;;;;;18.02;9.60;;;;;;;0.11;68.98;101367.71;1827422;77;21097;-55
2021/03/21 00:38:29;;;;;;;18.60;9.23;;;;;;;0.09;69.15;101367.70;1827574;77;20964;-55
2021/03/21 00:40:57;;;;;;;18.10;9.43;;;;;;;0.10;69.28;101368.58;1827470;78;21051;-54
2021/03/21 00:43:25;;;;;;;26.00;9.48;;;;;;;0.08;69.34;101372.52;1827613;78;20933;-55
2021/03/21 00:45:52;;;;;;;22.55;9.65;;;;;;;0.05;69.31;101370.25;1824542;78;21292;-54
2021/03/21 00:48:24;;;;;;;19.65;9.13;;;;;;;0.03;69.41;101366.70;1824359;78;21023;-55
2021/03/21 00:50:52;;;;;;;18.55;8.55;;;;;;;0.01;69.46;101369.73;1824355;78;21530;-55
2021/03/21 00:53:21;;;;;;;22.25;9.93;;;;;;;-0.02;69.46;101363.55;1824200;77;21138;-54
2021/03/21 00:55:49;;;;;;;21.68;10.53;;;;;;;-0.02;69.69;101358.28;1824412;78;21118;-54
2021/03/21 00:58:17;;;;;;;18.42;10.10;;;;;;;-0.04;69.93;101353.83;1824272;78;21697;-55
2021/03/21 01:00:50;;;;;;;19.82;10.10;;;;;;;-0.06;70.18;101356.45;1824293;78;21055;-54
2021/03/21 01:03:18;;;;;;;20.02;9.60;;;;;;;-0.09;70.34;101356.40;1824242;78;21016;-55
2021/03/21 01:05:49;;;;;;;18.48;9.43;;;;;;;-0.12;70.56;101358.95;1824312;77;21059;-54
2021/03/21 01:08:23;;;;;;;18.20;9.10;;;;;;;-0.15;70.65;101354.94;1824478;78;21062;-54
2021/03/21 01:11:00;;;;;;;16.17;8.65;;;;;;;-0.19;70.87;101351.80;1824479;78;21200;-55
2021/03/21 01:13:28;;;;;;;21.30;9.45;;;;;;;-0.23;70.98;101353.47;1824124;78;21016;-54
2021/03/21 01:15:57;;;;;;;21.35;10.00;;;;;;;-0.27;71.26;101355.59;1824421;78;21487;-55
2021/03/21 01:18:31;;;;;;;19.70;10.00;;;;;;;-0.30;71.44;101347.22;1824341;78;21039;-54
2021/03/21 01:21:00;;;;;;;18.33;9.17;;;;;;;-0.30;71.53;101345.00;1824518;78;21075;-54
2021/03/21 01:23:31;;;;;;;19.75;9.58;;;;;;;-0.33;71.82;101344.53;1824335;78;21269;-54
2021/03/21 01:25:58;;;;;;;23.70;10.08;;;;;;;-0.39;72.08;101345.70;1824242;77;21120;-55
2021/03/21 01:28:32;;;;;;;21.17;9.68;;;;;;;-0.44;72.41;101336.83;1824310;78;20889;-54
2021/03/21 01:31:01;;;;;;;21.57;9.73;;;;;;;-0.47;72.52;101348.63;1824267;78;20971;-54
2021/03/21 01:33:31;;;;;;;24.92;10.53;;;;;;;-0.52;72.82;101344.57;1824507;78;21485;-54
2021/03/21 01:35:59;;;;;;;20.08;9.35;;;;;;;-0.55;73.00;101337.02;1824273;78;21348;-54
2021/03/21 01:38:27;;;;;;;19.20;9.63;;;;;;;-0.58;72.98;101341.38;1824241;78;20968;-54
2021/03/21 01:40:59;;;;;;;17.42;9.13;;;;;;;-0.59;72.97;101340.91;1824280;78;20996;-54
2021/03/21 01:43:33;;;;;;;24.12;9.50;;;;;;;-0.60;73.00;101343.09;1824256;78;21059;-54
2021/03/21 01:46:00;;;;;;;20.60;8.88;;;;;;;-0.60;73.05;101340.46;1807372;79;21147;-54
2021/03/21 01:48:51;;;;;;;18.60;9.83;;;;;;;-0.61;73.05;101342.63;1807327;79;21343;-54
2021/03/21 01:51:24;;;;;;;20.62;9.10;;;;;;;-0.61;73.13;101336.50;1807388;79;21024;-54
2021/03/21 01:53:56;;;;;;;26.60;10.43;;;;;;;-0.63;72.97;101336.45;1807333;79;21528;-56
2021/03/21 01:56:25;;;;;;;21.77;9.38;;;;;;;-0.61;72.88;101332.09;1807301;79;21060;-54
2021/03/21 01:59:24;;;;;;;19.25;9.70;;;;;;;-0.55;72.78;101338.34;1807434;79;21476;-54
2021/03/21 02:01:54;;;;;;;20.25;10.32;;;;;;;-0.50;72.77;101328.81;1807105;79;21386;-54
2021/03/21 02:04:22;;;;;;;19.07;9.80;;;;;;;-0.46;72.75;101329.33;1807306;79;20993;-55
2021/03/21 02:07:22;;;;;;;25.25;10.40;;;;;;;-0.45;72.82;101327.15;1806903;79;21005;-54
2021/03/21 02:10:25;;;;;;;21.85;10.85;;;;;;;-0.47;72.74;101320.52;1800067;79;21155;-55
2021/03/21 02:13:12;;;;;;;22.37;9.23;;;;;;;-0.48;72.73;101327.09;1808324;79;21052;-55
2021/03/21 02:15:52;;;;;;;23.07;9.25;;;;;;;-0.50;72.87;101324.86;1812890;79;20993;-54
2021/03/21 02:18:41;;;;;;;21.02;9.70;;;;;;;-0.53;72.90;101324.80;1812514;79;21147;-55
2021/03/21 02:21:43;;;;;;;21.37;9.80;;;;;;;-0.49;72.89;101324.00;1873213;76;22674;-55
2021/03/21 02:24:57;;;;;;;20.72;9.48;;;;;;;-0.55;72.75;101329.12;1841062;78;20992;-55
2021/03/21 02:27:56;;;;;;;20.25;9.78;;;;;;;-0.55;72.78;101318.17;1841163;77;21254;-55
2021/03/21 02:30:27;;;;;;;20.30;9.30;;;;;;;-0.54;72.85;101329.61;1841011;78;20930;-55
2021/03/21 02:33:24;;;;;;;18.50;8.73;;;;;;;-0.59;72.98;101329.06;1841078;77;20934;-55
2021/03/21 02:36:02;;;;;;;20.23;8.85;;;;;;;-0.64;73.03;101325.45;1841117;78;20990;-55
2021/03/21 02:39:00;;;;;;;18.55;9.25;;;;;;;-0.69;73.08;101326.20;1841055;78;20985;-55
2021/03/21 02:41:42;;;;;;;18.98;9.15;;;;;;;-0.76;73.37;101319.95;1841067;78;21316;-54
2021/03/21 02:44:18;;;;;;;20.88;10.30;;;;;;;-0.79;73.26;101317.23;1838090;78;20995;-55
2021/03/21 02:46:56;;;;;;;19.77;9.48;;;;;;;-0.83;73.37;101319.34;1810143;78;20889;-55
2021/03/21 02:49:37;;;;;;;20.80;9.48;;;;;;;-0.88;73.50;101316.19;1828194;78;21471;-54
2021/03/21 02:52:13;;;;;;;19.17;9.28;;;;;;;-0.92;73.61;101316.98;1828137;78;21027;-55
2021/03/21 02:55:10;;;;;;;18.35;9.05;;;;;;;-0.97;73.87;101312.06;1827637;78;21565;-55
2021/03/21 02:57:43;;;;;;;21.48;10.00;;;;;;;-0.99;74.06;101315.50;1827911;78;21514;-54
2021/03/21 03:00:12;;;;;;;20.80;9.58;;;;;;;-1.01;74.23;101307.14;1828210;78;21121;-55
2021/03/21 03:02:47;;;;;;;24.20;9.95;;;;;;;-1.05;74.32;101309.66;1828121;78;21086;-55
2021/03/21 03:05:38;;;;;;;17.10;9.18;;;;;;;-1.06;74.68;101303.94;1828112;78;21091;-55
2021/03/21 03:08:19;;;;;;;16.77;8.90;;;;;;;-1.09;74.81;101293.35;1828209;78;21185;-55
2021/03/21 03:10:57;;;;;;;19.48;9.10;;;;;;;-1.10;74.98;101297.74;1828073;78;21030;-54
2021/03/21 03:13:38;;;;;;;17.48;9.13;;;;;;;-1.14;75.08;101295.00;1827510;78;20928;-55
2021/03/21 03:16:11;;;;;;;22.30;9.95;;;;;;;-1.17;75.22;101295.39;1828218;78;20976;-55
2021/03/21 03:18:54;;;;;;;21.33;8.98;;;;;;;-1.18;75.41;101295.34;1826163;78;21114;-55
2021/03/21 03:21:39;;;;;;;19.05;9.35;;;;;;;-1.21;75.42;101293.56;1827442;77;21704;-56
2021/03/21 03:24:19;;;;;;;17.90;9.10;;;;;;;-1.14;75.59;101293.69;1873083;76;22551;-55
2021/03/21 03:26:55;;;;;;;19.95;8.98;;;;;;;-1.20;75.55;101302.33;1833733;78;20973;-55
2021/03/21 03:29:41;;;;;;;23.00;9.80;;;;;;;-1.21;75.62;101302.77;1841108;78;21522;-55
2021/03/21 03:32:13;;;;;;;19.57;10.28;;;;;;;-1.18;75.65;101298.88;1840688;78;21052;-54
2021/03/21 03:34:45;;;;;;;21.37;9.90;;;;;;;-1.17;75.58;101298.44;1841207;78;21474;-55
2021/03/21 03:37:12;;;;;;;18.92;9.33;;;;;;;-1.17;75.54;101301.07;1840443;78;21060;-54
2021/03/21 03:39:41;;;;;;;20.23;10.10;;;;;;;-1.18;75.68;101308.09;1841171;78;21000;-55
2021/03/21 03:42:37;;;;;;;23.05;10.78;;;;;;;-1.19;75.65;101302.38;1840982;78;22219;-55
2021/03/21 03:45:33;;;;;;;25.37;10.82;;;;;;;-1.20;75.65;101300.59;1833212;78;21701;-54
2021/03/21 03:48:26;;;;;;;20.12;9.85;;;;;;;-1.22;75.88;101298.33;1827763;78;21003;-55
2021/03/21 03:50:59;;;;;;;25.68;10.50;;;;;;;-1.25;76.05;101300.89;1828128;78;21062;-55
2021/03/21 03:53:50;;;;;;;20.27;10.40;;;;;;;-1.27;76.21;101303.92;1828263;78;21074;-55
2021/03/21 03:56:25;;;;;;;25.72;10.28;;;;;;;-1.29;76.19;101304.31;1828277;78;21455;-55
2021/03/21 03:59:04;;;;;;;21.85;9.68;;;;;;;-1.35;76.29;101301.11;1827759;77;21070;-55
2021/03/21 04:01:51;;;;;;;32.50;10.82;;;;;;;-1.39;76.59;101313.73;1758389;78;21162;-54
2021/03/21 04:04:39;;;;;;;26.02;10.80;;;;;;;-1.42;76.72;101310.17;1828151;78;20964;-54
2021/03/21 04:07:18;;;;;;;20.62;10.18;;;;;;;-1.41;76.83;101309.31;1828235;78;21173;-54
2021/03/21 04:09:53;;;;;;;19.35;9.50;;;;;;;-1.40;76.65;101315.03;1827627;78;21702;-55
2021/03/21 04:12:33;;;;;;;23.07;10.93;;;;;;;-1.39;76.48;101311.55;1828211;78;21550;-55
2021/03/21 04:15:06;;;;;;;19.02;9.78;;;;;;;-1.39;76.29;101308.92;1828118;78;21047;-55
2021/03/21 04:17:41;;;;;;;21.45;10.40;;;;;;;-1.39;76.20;101312.87;1828105;78;21039;-55
2021/03/21 04:20:27;;;;;;;20.20;10.38;;;;;;;-1.40;76.29;101305.83;1828187;78;21122;-54
2021/03/21 04:23:00;;;;;;;;;;;;;;;-1.36;76.46;101301.09;1830730;78;21537;-55
2021/03/21 04:25:35;;;;;;;30.32;13.62;;;;;;;-1.32;76.39;101301.63;1836696;77;20150;-55
2021/03/21 04:28:11;;;;;;;29.12;13.90;;;;;;;-1.29;76.20;101300.38;1828035;78;20885;-55
2021/03/21 04:30:41;;;;;;;30.08;13.88;;;;;;;-1.27;75.84;101302.61;1828100;78;21130;-55
2021/03/21 04:33:11;;;;;;;35.98;16.20;;;;;;;-1.24;75.72;101305.30;1828108;78;21102;-54
2021/03/21 04:35:44;;;;;;;41.45;18.40;;;;;;;-1.14;75.62;101304.21;1827515;78;22163;-55
2021/03/21 04:38:19;;;;;;;52.08;21.65;;;;;;;-1.06;75.12;101307.89;1827571;78;20924;-54
2021/03/21 04:40:46;;;;;;;;;;;;;;;-0.98;74.81;101308.06;1830187;78;21161;-55
2021/03/21 04:43:28;;;;;;;39.70;15.85;;;;;;;-0.89;74.60;101309.56;1827542;78;20166;-54
2021/03/21 04:46:00;;;;;;;28.42;13.05;;;;;;;-0.78;74.34;101315.05;1824493;78;21031;-54
2021/03/21 04:48:27;;;;;;;22.87;11.20;;;;;;;-0.71;74.03;101309.08;1824500;78;22177;-55
2021/03/21 04:51:17;;;;;;;23.15;10.98;;;;;;;-0.60;73.70;101312.80;1824229;78;20933;-55
2021/03/21 04:53:55;;;;;;;26.27;11.15;;;;;;;-0.46;73.29;101300.34;1824404;78;21109;-54
2021/03/21 04:56:31;;;;;;;29.80;14.23;;;;;;;-0.32;72.83;101301.50;1824357;78;20925;-54
2021/03/21 04:59:20;;;;;;;19.65;10.43;;;;;;;-0.15;72.16;101304.44;1824288;78;21122;-54
2021/03/21 05:02:12;;;;;;;21.80;10.35;;;;;;;0.02;71.50;101312.19;1824389;78;21688;-55
2021/03/21 05:04:45;;;;;;;24.63;10.43;;;;;;;0.16;70.51;101317.28;1824269;78;20937;-55
2021/03/21 05:07:36;;;;;;;21.45;10.00;;;;;;;0.26;69.95;101311.28;1824332;78;20920;-55
2021/03/21 05:10:18;;;;;;;23.10;9.90;;;;;;;0.38;69.49;101309.72;1823893;78;21471;-54
2021/03/21 05:12:54;;;;;;;26.65;10.68;;;;;;;0.51;68.82;101311.67;1824289;78;21004;-55
2021/03/21 05:15:31;;;;;;;28.07;11.15;;;;;;;0.66;68.30;101302.23;1824394;78;21374;-55
2021/03/21 05:18:14;;;;;;;31.20;11.70;;;;;;;1.05;67.75;101310.27;1823693;78;21001;-56
2021/03/21 05:21:11;;;;;;;22.32;11.00;;;;;;;1.66;66.18;101318.48;1824308;78;20972;-55
2021/03/21 05:23:56;;;;;;;22.82;11.05;;;;;;;2.18;65.13;101322.52;1827055;78;20972;-55
2021/03/21 05:26:45;;;;;;;20.50;10.23;;;;;;;2.64;62.43;101313.16;1830361;77;21046;-55
2021/03/21 05:29:27;;;;;;;23.70;10.95;;;;;;;2.65;60.81;101309.22;1821037;78;21452;-54
2021/03/21 05:31:55;;;;;;;25.02;11.38;;;;;;;2.47;60.96;101310.41;1830343;78;20984;-55
2021/03/21 05:34:23;;;;;;;26.07;10.15;;;;;;;2.27;61.34;101311.13;1830394;78;20959;-55
2021/03/21 05:37:17;;;;;;;22.70;11.00;;;;;;;2.11;61.76;101323.34;1830308;78;20968;-55
2021/03/21 05:40:19;;;;;;;19.92;10.28;;;;;;;1.98;62.28;101326.28;1830306;77;21200;-56
2021/03/21 05:43:27;;;;;;;22.22;10.72;;;;;;;1.90;62.58;101324.00;1782367;77;21345;-56
2021/03/21 05:46:31;;;;;;;41.02;21.55;;;;;;;1.92;62.92;101324.91;1831960;78;20973;-54
2021/03/21 05:49:29;;;;;;;42.58;20.25;;;;;;;2.03;62.70;101326.33;1832140;78;21222;-55
2021/03/21 05:52:34;;;;;;;46.55;24.72;;;;;;;2.22;61.76;101330.92;1832157;77;21013;-56
2021/03/21 05:55:38;;;;;;;30.55;13.98;;;;;;;2.27;61.37;101325.68;1765105;77;21116;-54
2021/03/21 05:58:30;;;;;;;27.37;12.90;;;;;;;2.33;61.93;101319.11;1832042;77;21191;-56
2021/03/21 06:01:28;;;;;;;26.35;12.35;;;;;;;2.38;62.28;101313.86;1811833;77;21103;-55
2021/03/21 06:04:12;;;;;;;37.85;18.15;;;;;;;2.46;62.07;101316.58;1832015;77;21016;-55
2021/03/21 06:07:25;;;;;;;28.83;13.35;;;;;;;2.52;61.56;101322.77;1832174;78;20941;-55
2021/03/21 06:10:33;;;;;;;23.85;12.37;;;;;;;2.61;61.42;101321.09;1832165;78;20902;-55
2021/03/21 06:13:28;;;;;;;24.85;13.38;;;;;;;2.75;61.33;101319.86;1832174;78;21252;-54
2021/03/21 06:16:28;;;;;;;28.15;12.90;;;;;;;2.93;61.09;101312.45;1826599;78;21067;-54
2021/03/21 06:19:34;;;;;;;25.55;12.07;;;;;;;3.09;60.38;101312.09;1832148;78;21012;-56
2021/03/21 06:22:24;;;;;;;29.23;15.48;;;;;;;3.16;60.28;101301.98;1832259;78;21066;-55
2021/03/21 06:25:12;;;;;;;26.33;14.07;;;;;;;3.23;59.98;101298.93;1838749;77;21068;-56
2021/03/21 06:27:56;;;;;;;25.50;13.10;;;;;;;3.38;59.71;101301.63;1839747;78;21379;-55
2021/03/21 06:31:06;;;;;;;27.95;13.55;;;;;;;3.53;59.36;101306.54;1840346;78;21088;-56
2021/03/21 06:33:48;;;;;;;32.80;17.92;;;;;;;3.62;59.28;101310.53;1840268;78;21059;-55
2021/03/21 06:36:45;;;;;;;39.30;21.00;;;;;;;3.76;58.74;101309.70;1840349;78;21005;-56
2021/03/21 06:39:21;;;;;;;39.13;20.77;;;;;;;3.77;58.06;101315.45;1840351;78;21056;-55
2021/03/21 06:42:17;;;;;;;33.67;18.07;;;;;;;3.77;57.58;101308.81;1840437;78;21358;-56
2021/03/21 06:45:09;;;;;;;27.70;15.50;;;;;;;3.83;57.77;101323.41;1832581;78;21059;-56
2021/03/21 06:48:14;;;;;;;35.38;20.02;;;;;;;3.93;57.42;101314.59;1824234;77;21150;-56
2021/03/21 06:51:09;;;;;;;36.60;18.40;;;;;;;4.05;57.07;101329.66;1820777;78;20936;-57
2021/03/21 06:53:48;;;;;;;40.50;21.23;;;;;;;4.14;57.00;101323.47;1824231;78;21145;-55
2021/03/21 06:56:33;;;;;;;33.98;15.90;;;;;;;4.29;56.84;101319.94;1823863;78;21667;-56
2021/03/21 06:59:44;;;;;;;29.45;14.47;;;;;;;4.54;56.40;101319.92;1824386;78;21181;-56
2021/03/21 07:02:40;;;;;;;28.70;13.95;;;;;;;4.72;55.51;101319.91;1824231;78;20964;-56
2021/03/21 07:05:26;;;;;;;25.05;10.88;;;;;;;4.82;55.07;101318.13;1824186;78;21099;-56
2021/03/21 07:08:05;;;;;;;24.40;11.95;;;;;;;4.84;54.03;101321.66;1824455;77;21035;-56
2021/03/21 07:11:18;;;;;;;27.65;13.75;;;;;;;4.78;55.32;101316.80;1819549;78;21743;-56
2021/03/21 07:14:16;;;;;;;29.60;12.95;;;;;;;4.87;54.92;101308.82;1824159;78;21460;-56
2021/03/21 07:16:58;;;;;;;25.65;13.58;;;;;;;4.94;54.98;101309.23;1824250;78;20897;-56
2021/03/21 07:19:53;;;;;;;37.75;21.55;;;;;;;4.98;54.54;101299.49;1824180;78;21140;-55
2021/03/21 07:22:35;;;;;;;27.60;13.05;;;;;;;5.29;54.21;101300.70;1824297;78;21523;-56
2021/03/21 07:25:45;;;;;;;14.68;7.78;;;;;;;5.89;51.22;101298.17;1828853;78;21350;-55
2021/03/21 07:28:35;;;;;;;19.35;8.10;;;;;;;5.89;51.22;101298.17;1830248;78;20920;-56
2021/03/21 07:31:32;;;;;;;23.95;11.25;;;;;;;5.72;51.16;101284.52;1830341;78;20928;-55
2021/03/21 07:34:09;;;;;;;17.52;9.45;;;;;;;5.64;51.21;101288.12;1753224;81;21216;-56
2021/03/21 07:37:15;;;;;;;15.63;8.25;;;;;;;5.53;52.14;101284.19;1752691;81;21217;-56
2021/03/21 07:40:08;;;;;;;11.45;6.75;;;;;;;5.46;52.37;101289.98;1810722;77;21375;-56
2021/03/21 07:43:13;;;;;;;14.38;7.78;;;;;;;5.28;51.35;101293.16;1830023;77;20940;-56
2021/03/21 07:46:20;;;;;;;13.65;6.28;;;;;;;5.14;52.22;101289.69;1831955;78;21048;-56
2021/03/21 07:49:32;;;;;;;15.40;8.43;;;;;;;5.12;51.88;101300.31;1832111;77;21083;-56
2021/03/21 07:52:42;;;;;;;12.78;7.28;;;;;;;5.04;52.18;101303.45;1831980;78;21107;-56
2021/03/21 07:55:18;;;;;;;13.90;7.40;;;;;;;5.01;51.99;101294.16;1832062;77;21687;-55
2021/03/21 07:57:52;;;;;;;13.40;6.80;;;;;;;5.05;52.27;101298.58;1832110;78;21060;-55
2021/03/21 08:00:21;;;;;;;10.15;6.15;;;;;;;5.31;51.41;101302.91;1832083;78;21520;-56
2021/03/21 08:02:53;;;;;;;14.78;6.50;;;;;;;5.31;51.41;101302.91;1831867;77;21143;-56
2021/03/21 08:05:25;;;;;;;11.70;5.95;;;;;;;5.31;51.02;101294.93;1831921;78;21072;-56
2021/03/21 08:07:52;;;;;;;9.05;5.45;;;;;;;5.35;50.35;101287.38;1832060;78;21359;-55
2021/03/21 08:10:28;;;;;;;12.25;5.25;;;;;;;5.35;50.35;101287.38;1789871;78;21004;-56
2021/03/21 08:13:13;;;;;;;9.08;5.20;;;;;;;5.27;50.38;101284.74;1832171;78;21072;-55
2021/03/21 08:15:40;;;;;;;9.63;5.75;;;;;;;5.25;50.94;101279.01;1819052;78;21131;-56
2021/03/21 08:18:14;;;;;;;12.58;5.75;;;;;;;5.32;51.35;101275.42;1832144;78;21143;-56
2021/03/21 08:20:53;;;;;;;10.15;5.65;;;;;;;5.43;49.52;101262.97;1832193;78;21231;-56
2021/03/21 08:23:40;;;;;;;11.20;5.95;;;;;;;5.43;49.52;101262.97;1831738;77;21496;-56
2021/03/21 08:26:12;;;;;;;8.33;5.22;;;;;;;5.47;48.86;101267.80;1831848;77;21237;-56
2021/03/21 08:29:01;;;;;;;10.00;5.33;;;;;;;5.55;48.96;101274.42;1832111;78;21076;-56
2021/03/21 08:31:34;;;;;;;7.83;5.35;;;;;;;5.63;49.51;101268.59;1828591;78;21138;-56
2021/03/21 08:34:35;;;;;;;11.53;5.75;;;;;;;5.67;49.05;101261.05;1832147;77;22090;-56
2021/03/21 08:37:25;;;;;;;11.43;5.78;;;;;;;5.74;48.74;101259.21;1791369;77;21111;-55
2021/03/21 08:40:00;;;;;;;9.98;5.62;;;;;;;5.83;48.50;101266.25;1832210;78;21052;-55
2021/03/21 08:42:35;;;;;;;14.00;6.00;;;;;;;5.88;48.32;101255.16;1832128;78;21103;-56
2021/03/21 08:45:26;;;;;;;11.10;5.08;;;;;;;5.88;48.78;101253.82;1831009;78;21126;-56
2021/03/21 08:48:21;;;;;;;10.25;5.80;;;;;;;5.83;48.25;101258.27;1830476;77;21693;-56
2021/03/21 08:50:53;;;;;;;9.70;5.40;;;;;;;5.67;48.83;101253.08;1821908;77;21130;-56
2021/03/21 08:53:38;;;;;;;7.92;4.95;;;;;;;5.64;49.10;101252.20;1830448;77;21103;-55
2021/03/21 08:56:26;;;;;;;9.48;5.83;;;;;;;5.66;48.90;101250.41;1830426;78;21043;-56
2021/03/21 08:59:23;;;;;;;11.73;5.72;;;;;;;5.58;49.14;101255.77;1782979;77;21042;-56
2021/03/21 09:02:19;;;;;;;9.05;5.35;;;;;;;5.58;49.14;101255.77;1830303;77;21779;-56
2021/03/21 09:05:05;;;;;;;9.83;5.85;;;;;;;5.51;48.88;101252.27;1830262;78;21168;-57
2021/03/21 09:07:34;;;;;;;9.93;5.60;;;;;;;5.34;49.02;101244.85;1830523;78;20889;-56
2021/03/21 09:10:22;;;;;;;8.63;5.10;;;;;;;5.36;49.39;101229.30;1830358;77;21079;-56
2021/03/21 09:12:56;;;;;;;9.05;5.55;;;;;;;5.51;49.14;101235.44;1830372;78;21098;-56
2021/03/21 09:15:41;;;;;;;9.47;5.60;;;;;;;5.64;47.98;101231.81;1873204;76;23615;-56
2021/03/21 09:18:22;;;;;;;9.53;5.53;;;;;;;5.63;47.96;101218.05;1840997;77;20938;-56
2021/03/21 09:21:06;;;;;;;8.88;5.22;;;;;;;5.68;47.47;101210.94;1838744;78;21533;-56
2021/03/21 09:24:05;;;;;;;10.80;5.10;;;;;;;5.73;47.25;101207.79;1841079;78;21013;-56
2021/03/21 09:26:43;;;;;;;9.58;5.37;;;;;;;5.73;47.25;101207.79;1841010;78;21048;-56
2021/03/21 09:29:22;;;;;;;11.20;5.40;;;;;;;5.84;46.49;101204.15;1841199;78;21524;-56
2021/03/21 09:31:57;;;;;;;9.85;5.78;;;;;;;6.00;45.72;101199.14;1841089;78;20898;-56
2021/03/21 09:34:47;;;;;;;8.40;5.28;;;;;;;6.21;45.29;101197.68;1799766;78;22260;-56
2021/03/21 09:37:21;;;;;;;10.03;5.22;;;;;;;6.37;43.48;101198.40;1840985;78;21049;-55
2021/03/21 09:39:59;;;;;;;8.65;5.28;;;;;;;6.42;42.83;101194.80;1841008;78;20937;-55
2021/03/21 09:42:26;;;;;;;13.00;6.20;;;;;;;6.46;43.32;101195.63;1841187;78;21414;-56
2021/03/21 09:44:54;;;;;;;17.65;9.13;;;;;;;6.62;44.09;101195.47;1834054;78;21020;-57
2021/03/21 09:47:41;;;;;;;19.40;10.03;;;;;;;6.72;48.32;101198.44;1828239;78;22460;-56
2021/03/21 09:50:22;;;;;;;16.52;10.30;;;;;;;6.73;51.29;101195.77;1828078;78;21153;-57
2021/03/21 09:53:16;;;;;;;17.57;9.63;;;;;;;6.62;52.19;101186.14;1828190;78;21059;-56
2021/03/21 09:55:51;;;;;;;16.27;9.03;;;;;;;6.39;53.26;101194.80;1828258;78;21465;-56
2021/03/21 09:58:36;;;;;;;20.92;9.38;;;;;;;6.18;53.86;101186.59;1828123;78;21054;-56
2021/03/21 10:01:26;;;;;;;;;;;;;;;5.97;53.88;101188.52;1830967;78;21496;-55
2021/03/21 10:04:02;;;;;;;21.15;9.60;;;;;;;5.78;54.47;101180.26;1828138;78;20218;-56
2021/03/21 10:06:38;;;;;;;16.30;9.03;;;;;;;5.66;55.42;101166.17;1873199;76;22343;-55
2021/03/21 10:09:19;;;;;;;17.02;9.50;;;;;;;5.52;56.18;101170.70;1841088;78;20981;-56
2021/03/21 10:11:51;;;;;;;14.70;9.08;;;;;;;5.42;57.04;101167.23;1841043;77;21179;-56
2021/03/21 10:14:29;;;;;;;15.70;9.25;;;;;;;5.37;57.17;101175.22;1841078;78;21017;-55
2021/03/21 10:17:20;;;;;;;16.80;9.48;;;;;;;5.36;57.34;101165.48;1841050;78;20898;-56
2021/03/21 10:19:56;;;;;;;18.00;8.23;;;;;;;5.38;57.67;101157.05;1841086;78;20925;-55
2021/03/21 10:22:34;;;;;;;16.73;9.63;;;;;;;5.55;57.04;101149.40;1841096;78;21040;-56
2021/03/21 10:25:13;;;;;;;17.80;9.05;;;;;;;5.55;57.04;101149.40;1841012;78;21195;-56
2021/03/21 10:27:47;;;;;;;15.45;8.50;;;;;;;5.44;56.06;101139.73;1841025;78;21004;-55
2021/03/21 10:30:25;;;;;;;17.85;8.73;;;;;;;5.44;55.90;101141.07;1840701;78;20898;-55
2021/03/21 10:33:04;;;;;;;16.55;9.03;;;;;;;5.44;55.90;101141.07;1841095;78;20982;-56
2021/03/21 10:35:50;;;;;;;15.60;8.63;;;;;;;5.52;56.68;101121.50;1841016;78;21119;-57
2021/03/21 10:38:48;;;;;;;18.40;9.20;;;;;;;5.58;56.77;101132.08;1840571;78;21534;-56
2021/03/21 10:41:59;;;;;;;14.15;8.23;;;;;;;5.62;56.92;101129.82;1841088;78;21013;-55
2021/03/21 10:44:38;;;;;;;16.50;8.58;;;;;;;5.52;55.83;101125.48;1823755;78;21201;-56
2021/03/21 10:47:30;;;;;;;15.50;8.35;;;;;;;5.33;55.94;101125.63;1837913;78;20926;-56
2021/03/21 10:50:00;;;;;;;14.20;7.60;;;;;;;5.12;53.84;101111.58;1841264;78;21457;-56
2021/03/21 10:52:37;;;;;;;12.20;7.25;;;;;;;5.12;53.84;101111.58;1840991;77;21135;-56
2021/03/21 10:55:17;;;;;;;14.13;7.65;;;;;;;4.99;53.37;101115.23;1841023;78;21072;-56
2021/03/21 10:57:46;;;;;;;11.97;6.90;;;;;;;4.92;54.31;101086.91;1840981;78;20981;-56
2021/03/21 11:00:29;;;;;;;12.30;6.40;;;;;;;4.92;54.31;101086.91;1841148;78;21470;-56
2021/03/21 11:03:10;;;;;;;11.33;7.03;;;;;;;4.95;54.51;101091.77;1841131;78;21163;-57
2021/03/21 11:05:44;;;;;;;11.78;6.67;;;;;;;4.97;55.08;101089.08;1843418;77;21402;-55
2021/03/21 11:08:18;;;;;;;13.18;6.83;;;;;;;4.98;55.80;101087.75;1846970;77;21025;-56
2021/03/21 11:10:55;;;;;;;11.35;6.58;;;;;;;5.07;56.04;101084.16;1846848;77;21061;-55
2021/03/21 11:13:28;;;;;;;12.45;6.45;;;;;;;5.15;56.02;101078.33;1847030;77;21453;-56
2021/03/21 11:15:57;;;;;;;12.63;6.53;;;;;;;5.11;55.94;101064.63;1846797;77;20977;-56
2021/03/21 11:18:31;;;;;;;14.15;6.00;;;;;;;5.06;55.97;101062.89;1846302;77;21356;-56
2021/03/21 11:21:19;;;;;;;10.18;6.17;;;;;;;5.03;56.14;101062.48;1846165;77;21583;-56
2021/03/21 11:23:54;;;;;;;12.07;6.50;;;;;;;5.16;55.77;101047.33;1846313;77;21036;-56
2021/03/21 11:26:30;;;;;;;10.65;6.17;;;;;;;5.16;55.77;101047.33;1846507;77;20981;-55
2021/03/21 11:29:24;;;;;;;11.10;5.97;;;;;;;5.20;54.62;101054.84;1846398;77;20930;-57
2021/03/21 11:31:59;;;;;;;10.35;6.42;;;;;;;5.21;54.43;101047.30;1846355;77;21524;-56
2021/03/21 11:34:33;;;;;;;10.72;6.10;;;;;;;5.21;54.40;101048.63;1845512;77;21005;-56
2021/03/21 11:37:21;;;;;;;7.92;4.67;;;;;;;5.18;54.64;101036.66;1846313;77;21028;-56
2021/03/21 11:39:59;;;;;;;9.38;5.45;;;;;;;5.15;55.02;101031.81;1813433;77;21044;-56
2021/03/21 11:42:38;;;;;;;9.80;5.67;;;;;;;5.16;55.20;101030.91;1846331;77;20903;-56
2021/03/21 11:45:27;;;;;;;10.70;5.92;;;;;;;5.08;55.38;101014.16;1836459;77;21426;-55
2021/03/21 11:48:11;;;;;;;10.23;5.75;;;;;;;5.08;55.38;101014.16;1830308;77;21050;-55
2021/03/21 11:51:16;;;;;;;10.53;5.40;;;;;;;5.10;55.21;101013.70;1830461;77;21137;-56
2021/03/21 11:53:46;;;;;;;10.82;5.47;;;;;;;5.07;55.51;101003.09;1830680;78;20972;-55
2021/03/21 11:56:36;;;;;;;9.60;5.60;;;;;;;5.13;55.79;101003.03;1830339;78;20924;-55
2021/03/21 11:59:17;;;;;;;8.88;5.37;;;;;;;5.12;55.56;100992.44;1830465;78;21540;-55
2021/03/21 12:01:51;;;;;;;12.10;6.12;;;;;;;5.06;55.03;100988.48;1830309;77;21047;-56
2021/03/21 12:04:35;;;;;;;10.10;5.97;;;;;;;5.00;55.23;100984.98;1830378;77;20916;-56
2021/03/21 12:07:04;;;;;;;12.82;6.25;;;;;;;4.97;55.26;100979.70;1814554;78;21126;-57
2021/03/21 12:09:38;;;;;;;10.93;5.45;;;;;;;4.94;54.73;100978.83;1788116;78;21122;-56
2021/03/21 12:12:35;;;;;;;12.30;6.12;;;;;;;4.92;56.22;100963.34;1830475;78;21191;-56
2021/03/21 12:15:25;;;;;;;13.50;5.92;;;;;;;4.92;56.83;100959.36;1830455;78;21027;-56
2021/03/21 12:18:05;;;;;;;11.03;5.60;;;;;;;4.93;57.59;100958.47;1828789;77;21007;-55
2021/03/21 12:20:47;;;;;;;11.70;5.58;;;;;;;4.86;58.35;100954.54;1830385;78;21122;-55
2021/03/21 12:23:31;;;;;;;11.50;5.70;;;;;;;4.86;57.74;100957.20;1830381;78;21058;-56
2021/03/21 12:26:26;;;;;;;10.93;6.03;;;;;;;4.88;58.61;100942.13;1830440;78;21471;-55
2021/03/21 12:29:05;;;;;;;9.90;5.87;;;;;;;4.92;58.71;100950.06;1830485;78;21014;-55